Terminal Aerodrome Forecast
Issued by NWS

Home | Current Version | Previous Version | Text Only | Print | Product List | Glossary On
Versions: 1 2 3 4 5 6 7 8 9 10 11 12 13 14 15 16 17 18
000
FTUS46 KMTR 302333
TAFMRY
TAF
KMRY 302333Z 3100/3124 32009KT P6SM SKC
     FM310300 25005KT P6SM OVC007
     FM311000 VRB03KT 6SM BR OVC004
     FM311800 VRB05KT P6SM SCT010
     FM312000 28009KT P6SM SCT200=

USA.gov is the U.S. government's official web portal to all federal, state and local government web resources and services.